sensor_id;sensor_type;location;lat;lon;timestamp;P1;durP1;ratioP1;P2;durP2;ratioP2
14247;SDS011;7208;49.826;6.004;2023-04-09T00:00:22;14.00;;;10.23;;
14247;SDS011;7208;49.826;6.004;2023-04-09T00:02:48;14.37;;;9.87;;
14247;SDS011;7208;49.826;6.004;2023-04-09T00:05:14;14.10;;;9.50;;
14247;SDS011;7208;49.826;6.004;2023-04-09T00:07:40;14.73;;;10.77;;
14247;SDS011;7208;49.826;6.004;2023-04-09T00:10:05;14.67;;;10.97;;
14247;SDS011;7208;49.826;6.004;2023-04-09T00:12:31;14.33;;;10.27;;
14247;SDS011;7208;49.826;6.004;2023-04-09T00:14:57;14.63;;;10.43;;
14247;SDS011;7208;49.826;6.004;2023-04-09T00:17:23;11.93;;;8.97;;
14247;SDS011;7208;49.826;6.004;2023-04-09T00:19:48;13.57;;;9.83;;
14247;SDS011;7208;49.826;6.004;2023-04-09T00:22:14;12.43;;;9.57;;
14247;SDS011;7208;49.826;6.004;2023-04-09T00:24:40;13.13;;;9.50;;
14247;SDS011;7208;49.826;6.004;2023-04-09T00:27:05;14.60;;;10.57;;
14247;SDS011;7208;49.826;6.004;2023-04-09T00:29:31;17.27;;;11.57;;
14247;SDS011;7208;49.826;6.004;2023-04-09T00:31:57;13.90;;;10.63;;
14247;SDS011;7208;49.826;6.004;2023-04-09T00:34:22;14.67;;;10.77;;
14247;SDS011;7208;49.826;6.004;2023-04-09T00:36:48;15.27;;;10.47;;
14247;SDS011;7208;49.826;6.004;2023-04-09T00:39:14;13.70;;;10.10;;
14247;SDS011;7208;49.826;6.004;2023-04-09T00:41:40;15.30;;;10.17;;
14247;SDS011;7208;49.826;6.004;2023-04-09T00:44:05;18.63;;;11.43;;
14247;SDS011;7208;49.826;6.004;2023-04-09T00:46:31;14.20;;;9.47;;
14247;SDS011;7208;49.826;6.004;2023-04-09T00:48:57;14.67;;;9.47;;
14247;SDS011;7208;49.826;6.004;2023-04-09T00:51:23;14.67;;;9.67;;
14247;SDS011;7208;49.826;6.004;2023-04-09T00:53:48;11.03;;;8.90;;
14247;SDS011;7208;49.826;6.004;2023-04-09T00:56:14;12.63;;;9.17;;
14247;SDS011;7208;49.826;6.004;2023-04-09T00:58:42;13.90;;;8.87;;
14247;SDS011;7208;49.826;6.004;2023-04-09T01:01:08;13.60;;;9.27;;
14247;SDS011;7208;49.826;6.004;2023-04-09T01:03:34;12.53;;;9.37;;
14247;SDS011;7208;49.826;6.004;2023-04-09T01:11:09;16.93;;;10.47;;
14247;SDS011;7208;49.826;6.004;2023-04-09T01:13:48;14.00;;;9.63;;
14247;SDS011;7208;49.826;6.004;2023-04-09T01:16:25;17.30;;;10.10;;
14247;SDS011;7208;49.826;6.004;2023-04-09T01:18:57;16.30;;;10.47;;
14247;SDS011;7208;49.826;6.004;2023-04-09T01:21:29;18.80;;;11.93;;
14247;SDS011;7208;49.826;6.004;2023-04-09T01:23:59;19.50;;;13.07;;
14247;SDS011;7208;49.826;6.004;2023-04-09T01:29:23;27.13;;;14.40;;
14247;SDS011;7208;49.826;6.004;2023-04-09T01:31:51;24.63;;;14.53;;
14247;SDS011;7208;49.826;6.004;2023-04-09T01:34:18;27.80;;;15.70;;
14247;SDS011;7208;49.826;6.004;2023-04-09T01:36:46;24.93;;;14.97;;
14247;SDS011;7208;49.826;6.004;2023-04-09T01:39:15;28.23;;;15.10;;
14247;SDS011;7208;49.826;6.004;2023-04-09T01:41:41;27.57;;;15.73;;
14247;SDS011;7208;49.826;6.004;2023-04-09T01:44:07;26.57;;;16.37;;
14247;SDS011;7208;49.826;6.004;2023-04-09T01:46:34;22.33;;;13.80;;
14247;SDS011;7208;49.826;6.004;2023-04-09T01:49:01;18.63;;;13.03;;
14247;SDS011;7208;49.826;6.004;2023-04-09T01:51:28;22.97;;;14.20;;
14247;SDS011;7208;49.826;6.004;2023-04-09T01:53:55;22.53;;;14.73;;
14247;SDS011;7208;49.826;6.004;2023-04-09T01:56:22;23.77;;;14.50;;
14247;SDS011;7208;49.826;6.004;2023-04-09T01:58:47;29.77;;;22.10;;
14247;SDS011;7208;49.826;6.004;2023-04-09T02:01:15;29.70;;;19.47;;
14247;SDS011;7208;49.826;6.004;2023-04-09T02:03:50;31.57;;;17.67;;
14247;SDS011;7208;49.826;6.004;2023-04-09T02:09:11;25.47;;;14.97;;
14247;SDS011;7208;49.826;6.004;2023-04-09T02:11:39;31.33;;;16.87;;
14247;SDS011;7208;49.826;6.004;2023-04-09T02:14:06;32.87;;;17.23;;
14247;SDS011;7208;49.826;6.004;2023-04-09T02:16:33;26.10;;;16.27;;
14247;SDS011;7208;49.826;6.004;2023-04-09T02:19:00;30.00;;;17.43;;
14247;SDS011;7208;49.826;6.004;2023-04-09T02:21:26;26.80;;;17.50;;
14247;SDS011;7208;49.826;6.004;2023-04-09T02:23:52;26.20;;;16.33;;
14247;SDS011;7208;49.826;6.004;2023-04-09T02:26:19;26.77;;;15.87;;
14247;SDS011;7208;49.826;6.004;2023-04-09T02:28:45;27.43;;;15.87;;
14247;SDS011;7208;49.826;6.004;2023-04-09T02:31:11;30.67;;;16.03;;
14247;SDS011;7208;49.826;6.004;2023-04-09T02:33:37;23.67;;;14.90;;
14247;SDS011;7208;49.826;6.004;2023-04-09T02:36:03;27.60;;;15.40;;
14247;SDS011;7208;49.826;6.004;2023-04-09T02:38:29;28.43;;;15.40;;
14247;SDS011;7208;49.826;6.004;2023-04-09T02:40:55;27.87;;;15.43;;
14247;SDS011;7208;49.826;6.004;2023-04-09T02:43:21;25.63;;;14.60;;
14247;SDS011;7208;49.826;6.004;2023-04-09T02:45:47;28.33;;;14.60;;
14247;SDS011;7208;49.826;6.004;2023-04-09T02:48:12;26.07;;;14.00;;
14247;SDS011;7208;49.826;6.004;2023-04-09T02:50:38;28.43;;;15.27;;
14247;SDS011;7208;49.826;6.004;2023-04-09T02:53:03;26.43;;;14.13;;
14247;SDS011;7208;49.826;6.004;2023-04-09T02:55:29;24.20;;;13.90;;
14247;SDS011;7208;49.826;6.004;2023-04-09T02:57:55;26.10;;;14.73;;
14247;SDS011;7208;49.826;6.004;2023-04-09T03:00:20;23.23;;;13.10;;
14247;SDS011;7208;49.826;6.004;2023-04-09T03:02:46;24.07;;;14.63;;
14247;SDS011;7208;49.826;6.004;2023-04-09T03:05:11;24.07;;;13.87;;
14247;SDS011;7208;49.826;6.004;2023-04-09T03:07:37;22.87;;;13.73;;
14247;SDS011;7208;49.826;6.004;2023-04-09T03:10:03;28.37;;;15.60;;
14247;SDS011;7208;49.826;6.004;2023-04-09T03:12:29;29.07;;;15.00;;
14247;SDS011;7208;49.826;6.004;2023-04-09T03:14:54;25.87;;;14.13;;
14247;SDS011;7208;49.826;6.004;2023-04-09T03:17:20;25.00;;;13.53;;
14247;SDS011;7208;49.826;6.004;2023-04-09T03:19:48;26.63;;;14.73;;
14247;SDS011;7208;49.826;6.004;2023-04-09T03:22:14;24.17;;;13.53;;
14247;SDS011;7208;49.826;6.004;2023-04-09T03:24:40;28.13;;;15.23;;
14247;SDS011;7208;49.826;6.004;2023-04-09T03:27:06;21.30;;;13.37;;
14247;SDS011;7208;49.826;6.004;2023-04-09T03:29:31;25.17;;;13.10;;
14247;SDS011;7208;49.826;6.004;2023-04-09T03:31:57;28.47;;;12.43;;
14247;SDS011;7208;49.826;6.004;2023-04-09T03:34:22;22.50;;;13.03;;
14247;SDS011;7208;49.826;6.004;2023-04-09T03:36:48;21.43;;;12.13;;
14247;SDS011;7208;49.826;6.004;2023-04-09T03:39:14;18.67;;;12.33;;
14247;SDS011;7208;49.826;6.004;2023-04-09T03:41:39;19.53;;;10.87;;
14247;SDS011;7208;49.826;6.004;2023-04-09T03:44:05;22.03;;;12.30;;
14247;SDS011;7208;49.826;6.004;2023-04-09T03:46:31;25.67;;;13.73;;
14247;SDS011;7208;49.826;6.004;2023-04-09T03:48:56;24.27;;;12.60;;
14247;SDS011;7208;49.826;6.004;2023-04-09T03:51:22;22.23;;;12.77;;
14247;SDS011;7208;49.826;6.004;2023-04-09T03:53:47;22.20;;;13.33;;
14247;SDS011;7208;49.826;6.004;2023-04-09T03:56:13;21.93;;;11.23;;
14247;SDS011;7208;49.826;6.004;2023-04-09T03:58:38;25.83;;;12.73;;
14247;SDS011;7208;49.826;6.004;2023-04-09T04:01:04;22.43;;;12.47;;
14247;SDS011;7208;49.826;6.004;2023-04-09T04:03:30;23.07;;;12.70;;
14247;SDS011;7208;49.826;6.004;2023-04-09T04:05:59;24.53;;;12.63;;
14247;SDS011;7208;49.826;6.004;2023-04-09T04:08:29;21.40;;;12.27;;
14247;SDS011;7208;49.826;6.004;2023-04-09T04:10:54;27.63;;;12.80;;
14247;SDS011;7208;49.826;6.004;2023-04-09T04:13:20;24.10;;;11.60;;
14247;SDS011;7208;49.826;6.004;2023-04-09T04:15:46;23.30;;;13.17;;
14247;SDS011;7208;49.826;6.004;2023-04-09T04:18:12;25.53;;;12.87;;
14247;SDS011;7208;49.826;6.004;2023-04-09T04:20:37;20.27;;;11.23;;
14247;SDS011;7208;49.826;6.004;2023-04-09T04:23:03;22.03;;;13.10;;
14247;SDS011;7208;49.826;6.004;2023-04-09T04:25:29;23.70;;;12.10;;
14247;SDS011;7208;49.826;6.004;2023-04-09T04:27:55;21.63;;;11.57;;
14247;SDS011;7208;49.826;6.004;2023-04-09T04:30:21;21.53;;;11.43;;
14247;SDS011;7208;49.826;6.004;2023-04-09T04:32:47;28.10;;;12.27;;
14247;SDS011;7208;49.826;6.004;2023-04-09T04:35:13;21.80;;;12.03;;
14247;SDS011;7208;49.826;6.004;2023-04-09T04:37:39;25.40;;;13.53;;
14247;SDS011;7208;49.826;6.004;2023-04-09T04:40:05;25.70;;;12.63;;
14247;SDS011;7208;49.826;6.004;2023-04-09T04:42:32;20.80;;;11.67;;
14247;SDS011;7208;49.826;6.004;2023-04-09T04:44:58;20.47;;;10.97;;
14247;SDS011;7208;49.826;6.004;2023-04-09T04:47:23;25.70;;;11.63;;
14247;SDS011;7208;49.826;6.004;2023-04-09T04:49:49;22.13;;;11.47;;
14247;SDS011;7208;49.826;6.004;2023-04-09T04:52:15;20.77;;;12.33;;
14247;SDS011;7208;49.826;6.004;2023-04-09T04:54:40;18.53;;;11.33;;
14247;SDS011;7208;49.826;6.004;2023-04-09T04:57:06;19.43;;;12.27;;
14247;SDS011;7208;49.826;6.004;2023-04-09T04:59:32;23.37;;;12.07;;
14247;SDS011;7208;49.826;6.004;2023-04-09T05:02:00;24.33;;;12.83;;
14247;SDS011;7208;49.826;6.004;2023-04-09T05:04:26;27.43;;;12.23;;
14247;SDS011;7208;49.826;6.004;2023-04-09T05:06:52;26.17;;;12.97;;
14247;SDS011;7208;49.826;6.004;2023-04-09T05:09:17;25.90;;;11.83;;
14247;SDS011;7208;49.826;6.004;2023-04-09T05:11:43;27.27;;;12.67;;
14247;SDS011;7208;49.826;6.004;2023-04-09T05:14:09;23.87;;;12.10;;
14247;SDS011;7208;49.826;6.004;2023-04-09T05:16:34;23.20;;;12.57;;
14247;SDS011;7208;49.826;6.004;2023-04-09T05:19:00;27.93;;;13.20;;
14247;SDS011;7208;49.826;6.004;2023-04-09T05:21:26;27.20;;;12.40;;
14247;SDS011;7208;49.826;6.004;2023-04-09T05:23:51;29.57;;;13.47;;
14247;SDS011;7208;49.826;6.004;2023-04-09T05:26:18;25.73;;;12.80;;
14247;SDS011;7208;49.826;6.004;2023-04-09T05:28:43;23.43;;;12.90;;
14247;SDS011;7208;49.826;6.004;2023-04-09T05:31:09;22.80;;;13.17;;
14247;SDS011;7208;49.826;6.004;2023-04-09T05:33:37;26.37;;;13.63;;
14247;SDS011;7208;49.826;6.004;2023-04-09T05:36:03;23.97;;;12.27;;
14247;SDS011;7208;49.826;6.004;2023-04-09T05:38:29;29.73;;;15.00;;
14247;SDS011;7208;49.826;6.004;2023-04-09T05:40:55;22.97;;;13.33;;
14247;SDS011;7208;49.826;6.004;2023-04-09T05:43:21;34.00;;;18.20;;
14247;SDS011;7208;49.826;6.004;2023-04-09T05:45:46;36.03;;;17.10;;
14247;SDS011;7208;49.826;6.004;2023-04-09T05:48:12;47.43;;;22.37;;
14247;SDS011;7208;49.826;6.004;2023-04-09T05:50:38;66.07;;;32.50;;
14247;SDS011;7208;49.826;6.004;2023-04-09T05:53:03;74.63;;;39.37;;
14247;SDS011;7208;49.826;6.004;2023-04-09T05:55:32;56.93;;;30.83;;
14247;SDS011;7208;49.826;6.004;2023-04-09T05:57:58;46.20;;;24.67;;
14247;SDS011;7208;49.826;6.004;2023-04-09T06:00:24;43.10;;;23.60;;
14247;SDS011;7208;49.826;6.004;2023-04-09T06:02:49;44.33;;;22.63;;
14247;SDS011;7208;49.826;6.004;2023-04-09T06:05:15;35.53;;;19.93;;
14247;SDS011;7208;49.826;6.004;2023-04-09T06:07:40;33.13;;;17.67;;
14247;SDS011;7208;49.826;6.004;2023-04-09T06:10:06;35.77;;;18.13;;
14247;SDS011;7208;49.826;6.004;2023-04-09T06:12:35;28.17;;;15.57;;
14247;SDS011;7208;49.826;6.004;2023-04-09T06:15:02;30.80;;;15.47;;
14247;SDS011;7208;49.826;6.004;2023-04-09T06:17:28;27.63;;;14.10;;
14247;SDS011;7208;49.826;6.004;2023-04-09T06:19:54;29.37;;;15.27;;
14247;SDS011;7208;49.826;6.004;2023-04-09T06:22:20;24.50;;;12.50;;
14247;SDS011;7208;49.826;6.004;2023-04-09T06:24:45;33.17;;;17.87;;
14247;SDS011;7208;49.826;6.004;2023-04-09T06:27:11;35.27;;;23.77;;
14247;SDS011;7208;49.826;6.004;2023-04-09T06:29:36;33.10;;;16.37;;
14247;SDS011;7208;49.826;6.004;2023-04-09T06:32:02;41.07;;;23.30;;
14247;SDS011;7208;49.826;6.004;2023-04-09T06:34:28;45.83;;;27.17;;
14247;SDS011;7208;49.826;6.004;2023-04-09T06:36:53;40.33;;;21.97;;
14247;SDS011;7208;49.826;6.004;2023-04-09T06:39:19;36.77;;;20.73;;
14247;SDS011;7208;49.826;6.004;2023-04-09T06:41:45;35.63;;;19.40;;
14247;SDS011;7208;49.826;6.004;2023-04-09T06:44:11;33.07;;;18.63;;
14247;SDS011;7208;49.826;6.004;2023-04-09T06:46:37;32.87;;;18.60;;
14247;SDS011;7208;49.826;6.004;2023-04-09T06:49:02;34.27;;;18.33;;
14247;SDS011;7208;49.826;6.004;2023-04-09T06:51:28;32.70;;;18.03;;
14247;SDS011;7208;49.826;6.004;2023-04-09T06:53:53;34.40;;;17.27;;
14247;SDS011;7208;49.826;6.004;2023-04-09T06:56:19;38.47;;;17.80;;
14247;SDS011;7208;49.826;6.004;2023-04-09T06:58:45;28.57;;;17.70;;
14247;SDS011;7208;49.826;6.004;2023-04-09T07:01:11;27.07;;;17.47;;
14247;SDS011;7208;49.826;6.004;2023-04-09T07:03:36;30.27;;;17.87;;
14247;SDS011;7208;49.826;6.004;2023-04-09T07:06:02;25.43;;;15.73;;
14247;SDS011;7208;49.826;6.004;2023-04-09T07:08:28;27.47;;;16.90;;
14247;SDS011;7208;49.826;6.004;2023-04-09T07:10:54;25.57;;;16.80;;
14247;SDS011;7208;49.826;6.004;2023-04-09T07:13:20;26.30;;;16.73;;
14247;SDS011;7208;49.826;6.004;2023-04-09T07:15:45;27.23;;;16.17;;
14247;SDS011;7208;49.826;6.004;2023-04-09T07:18:11;23.67;;;15.57;;
14247;SDS011;7208;49.826;6.004;2023-04-09T07:20:37;25.83;;;15.43;;
14247;SDS011;7208;49.826;6.004;2023-04-09T07:23:02;26.40;;;17.43;;
14247;SDS011;7208;49.826;6.004;2023-04-09T07:25:28;29.50;;;17.93;;
14247;SDS011;7208;49.826;6.004;2023-04-09T07:27:54;23.40;;;14.53;;
14247;SDS011;7208;49.826;6.004;2023-04-09T07:30:20;19.50;;;14.30;;
14247;SDS011;7208;49.826;6.004;2023-04-09T07:32:46;18.83;;;13.57;;
14247;SDS011;7208;49.826;6.004;2023-04-09T07:35:12;18.70;;;13.80;;
14247;SDS011;7208;49.826;6.004;2023-04-09T07:37:37;14.77;;;12.33;;
14247;SDS011;7208;49.826;6.004;2023-04-09T07:40:03;15.90;;;10.87;;
14247;SDS011;7208;49.826;6.004;2023-04-09T07:42:30;12.80;;;11.50;;
14247;SDS011;7208;49.826;6.004;2023-04-09T07:44:55;13.83;;;11.17;;
14247;SDS011;7208;49.826;6.004;2023-04-09T07:47:21;12.20;;;10.80;;
14247;SDS011;7208;49.826;6.004;2023-04-09T07:49:47;12.87;;;10.37;;
14247;SDS011;7208;49.826;6.004;2023-04-09T07:52:13;12.07;;;10.20;;
14247;SDS011;7208;49.826;6.004;2023-04-09T07:54:39;13.83;;;10.47;;
14247;SDS011;7208;49.826;6.004;2023-04-09T07:57:05;11.77;;;9.83;;
14247;SDS011;7208;49.826;6.004;2023-04-09T07:59:31;12.20;;;9.97;;
14247;SDS011;7208;49.826;6.004;2023-04-09T08:01:58;11.83;;;9.10;;
14247;SDS011;7208;49.826;6.004;2023-04-09T08:04:24;11.87;;;9.83;;
14247;SDS011;7208;49.826;6.004;2023-04-09T08:06:51;12.87;;;9.73;;
14247;SDS011;7208;49.826;6.004;2023-04-09T08:09:17;11.13;;;8.87;;
14247;SDS011;7208;49.826;6.004;2023-04-09T08:11:44;10.83;;;9.00;;
14247;SDS011;7208;49.826;6.004;2023-04-09T08:14:11;9.47;;;8.47;;
14247;SDS011;7208;49.826;6.004;2023-04-09T08:16:38;10.70;;;9.00;;
14247;SDS011;7208;49.826;6.004;2023-04-09T08:19:05;8.90;;;8.00;;
14247;SDS011;7208;49.826;6.004;2023-04-09T08:21:32;9.20;;;7.97;;
14247;SDS011;7208;49.826;6.004;2023-04-09T08:23:57;8.10;;;7.30;;
14247;SDS011;7208;49.826;6.004;2023-04-09T08:26:28;8.67;;;7.80;;
14247;SDS011;7208;49.826;6.004;2023-04-09T08:28:54;8.70;;;7.80;;
14247;SDS011;7208;49.826;6.004;2023-04-09T08:31:20;7.43;;;6.70;;
14247;SDS011;7208;49.826;6.004;2023-04-09T08:33:46;6.73;;;5.87;;
14247;SDS011;7208;49.826;6.004;2023-04-09T08:36:12;7.00;;;6.30;;
14247;SDS011;7208;49.826;6.004;2023-04-09T08:38:37;7.50;;;6.80;;
14247;SDS011;7208;49.826;6.004;2023-04-09T08:41:03;6.73;;;6.03;;
14247;SDS011;7208;49.826;6.004;2023-04-09T08:43:29;7.47;;;5.53;;
14247;SDS011;7208;49.826;6.004;2023-04-09T08:45:57;5.90;;;5.40;;
14247;SDS011;7208;49.826;6.004;2023-04-09T08:48:26;5.20;;;4.80;;
14247;SDS011;7208;49.826;6.004;2023-04-09T08:50:52;6.20;;;5.60;;
14247;SDS011;7208;49.826;6.004;2023-04-09T08:53:18;6.43;;;5.93;;
14247;SDS011;7208;49.826;6.004;2023-04-09T08:55:46;5.77;;;5.27;;
14247;SDS011;7208;49.826;6.004;2023-04-09T08:58:12;6.57;;;5.27;;
14247;SDS011;7208;49.826;6.004;2023-04-09T09:00:38;6.43;;;5.83;;
14247;SDS011;7208;49.826;6.004;2023-04-09T09:05:39;5.67;;;5.17;;
14247;SDS011;7208;49.826;6.004;2023-04-09T09:08:09;4.97;;;4.57;;
14247;SDS011;7208;49.826;6.004;2023-04-09T09:10:40;5.40;;;4.90;;
14247;SDS011;7208;49.826;6.004;2023-04-09T09:15:46;6.33;;;5.73;;
14247;SDS011;7208;49.826;6.004;2023-04-09T09:18:15;5.73;;;5.23;;
14247;SDS011;7208;49.826;6.004;2023-04-09T09:20:41;5.60;;;5.10;;
14247;SDS011;7208;49.826;6.004;2023-04-09T09:23:07;5.43;;;4.93;;
14247;SDS011;7208;49.826;6.004;2023-04-09T09:25:36;5.80;;;5.20;;
14247;SDS011;7208;49.826;6.004;2023-04-09T09:28:10;4.70;;;4.30;;
14247;SDS011;7208;49.826;6.004;2023-04-09T09:30:37;5.33;;;4.83;;
14247;SDS011;7208;49.826;6.004;2023-04-09T09:33:05;5.27;;;4.20;;
14247;SDS011;7208;49.826;6.004;2023-04-09T09:35:45;4.90;;;4.37;;
14247;SDS011;7208;49.826;6.004;2023-04-09T09:38:15;5.20;;;4.80;;
14247;SDS011;7208;49.826;6.004;2023-04-09T09:40:41;3.60;;;3.30;;
14247;SDS011;7208;49.826;6.004;2023-04-09T09:43:07;3.60;;;3.30;;
14247;SDS011;7208;49.826;6.004;2023-04-09T09:45:35;3.83;;;3.10;;
14247;SDS011;7208;49.826;6.004;2023-04-09T09:48:00;4.07;;;3.67;;
14247;SDS011;7208;49.826;6.004;2023-04-09T09:50:28;4.37;;;3.97;;
14247;SDS011;7208;49.826;6.004;2023-04-09T09:53:02;4.03;;;3.73;;
14247;SDS011;7208;49.826;6.004;2023-04-09T09:55:32;4.10;;;3.80;;
14247;SDS011;7208;49.826;6.004;2023-04-09T09:58:06;4.20;;;3.90;;
14247;SDS011;7208;49.826;6.004;2023-04-09T10:00:56;4.60;;;4.20;;
14247;SDS011;7208;49.826;6.004;2023-04-09T10:03:24;5.10;;;4.60;;
14247;SDS011;7208;49.826;6.004;2023-04-09T10:05:51;4.03;;;3.70;;
14247;SDS011;7208;49.826;6.004;2023-04-09T10:08:18;4.73;;;4.33;;
14247;SDS011;7208;49.826;6.004;2023-04-09T10:10:45;4.43;;;4.03;;
14247;SDS011;7208;49.826;6.004;2023-04-09T10:13:18;3.97;;;3.67;;
14247;SDS011;7208;49.826;6.004;2023-04-09T10:15:48;4.03;;;3.73;;
14247;SDS011;7208;49.826;6.004;2023-04-09T10:18:16;4.00;;;3.70;;
14247;SDS011;7208;49.826;6.004;2023-04-09T10:23:48;3.70;;;3.40;;
14247;SDS011;7208;49.826;6.004;2023-04-09T10:26:14;4.33;;;3.93;;
14247;SDS011;7208;49.826;6.004;2023-04-09T10:28:43;3.30;;;3.10;;
14247;SDS011;7208;49.826;6.004;2023-04-09T10:31:08;3.80;;;3.50;;
14247;SDS011;7208;49.826;6.004;2023-04-09T10:33:36;2.90;;;2.70;;
14247;SDS011;7208;49.826;6.004;2023-04-09T10:36:05;2.70;;;2.50;;
14247;SDS011;7208;49.826;6.004;2023-04-09T10:38:38;3.37;;;3.07;;
14247;SDS011;7208;49.826;6.004;2023-04-09T10:41:15;3.20;;;3.00;;
14247;SDS011;7208;49.826;6.004;2023-04-09T10:43:47;2.90;;;2.70;;
14247;SDS011;7208;49.826;6.004;2023-04-09T10:46:28;3.13;;;2.93;;
14247;SDS011;7208;49.826;6.004;2023-04-09T10:49:09;3.20;;;3.00;;
14247;SDS011;7208;49.826;6.004;2023-04-09T10:51:35;3.50;;;3.20;;
14247;SDS011;7208;49.826;6.004;2023-04-09T10:54:05;3.90;;;3.60;;
14247;SDS011;7208;49.826;6.004;2023-04-09T10:56:31;3.00;;;2.80;;
14247;SDS011;7208;49.826;6.004;2023-04-09T10:58:57;3.07;;;2.87;;
14247;SDS011;7208;49.826;6.004;2023-04-09T11:01:23;3.30;;;3.00;;
14247;SDS011;7208;49.826;6.004;2023-04-09T11:04:15;2.87;;;2.60;;
14247;SDS011;7208;49.826;6.004;2023-04-09T11:06:44;3.10;;;2.90;;
14247;SDS011;7208;49.826;6.004;2023-04-09T11:09:12;3.10;;;2.90;;
14247;SDS011;7208;49.826;6.004;2023-04-09T11:11:37;3.07;;;2.77;;
14247;SDS011;7208;49.826;6.004;2023-04-09T11:14:03;3.50;;;3.20;;
14247;SDS011;7208;49.826;6.004;2023-04-09T11:16:28;3.57;;;3.27;;
14247;SDS011;7208;49.826;6.004;2023-04-09T11:18:55;3.80;;;3.50;;
14247;SDS011;7208;49.826;6.004;2023-04-09T11:21:25;4.77;;;4.37;;
14247;SDS011;7208;49.826;6.004;2023-04-09T11:23:52;4.03;;;3.73;;
14247;SDS011;7208;49.826;6.004;2023-04-09T11:26:29;4.43;;;4.13;;
14247;SDS011;7208;49.826;6.004;2023-04-09T11:29:03;3.60;;;3.30;;
14247;SDS011;7208;49.826;6.004;2023-04-09T11:31:33;3.40;;;3.10;;
14247;SDS011;7208;49.826;6.004;2023-04-09T11:33:59;2.60;;;2.40;;
14247;SDS011;7208;49.826;6.004;2023-04-09T11:36:24;3.30;;;3.10;;
14247;SDS011;7208;49.826;6.004;2023-04-09T11:38:51;3.53;;;3.33;;
14247;SDS011;7208;49.826;6.004;2023-04-09T11:41:40;2.73;;;2.53;;
14247;SDS011;7208;49.826;6.004;2023-04-09T11:44:09;2.80;;;2.60;;
14247;SDS011;7208;49.826;6.004;2023-04-09T11:46:34;2.63;;;2.43;;
14247;SDS011;7208;49.826;6.004;2023-04-09T11:49:02;2.70;;;2.50;;
14247;SDS011;7208;49.826;6.004;2023-04-09T11:51:28;2.67;;;2.47;;
14247;SDS011;7208;49.826;6.004;2023-04-09T11:54:00;3.30;;;3.00;;
14247;SDS011;7208;49.826;6.004;2023-04-09T11:56:30;2.80;;;2.60;;
14247;SDS011;7208;49.826;6.004;2023-04-09T11:58:56;2.93;;;2.73;;
14247;SDS011;7208;49.826;6.004;2023-04-09T12:01:22;4.07;;;3.23;;
14247;SDS011;7208;49.826;6.004;2023-04-09T12:03:52;2.97;;;2.77;;
14247;SDS011;7208;49.826;6.004;2023-04-09T12:06:21;2.93;;;2.73;;
14247;SDS011;7208;49.826;6.004;2023-04-09T12:08:55;2.70;;;2.50;;
14247;SDS011;7208;49.826;6.004;2023-04-09T12:11:26;2.90;;;2.70;;
14247;SDS011;7208;49.826;6.004;2023-04-09T12:13:59;2.63;;;2.43;;
14247;SDS011;7208;49.826;6.004;2023-04-09T12:16:28;2.80;;;2.60;;
14247;SDS011;7208;49.826;6.004;2023-04-09T12:21:49;2.30;;;2.20;;
14247;SDS011;7208;49.826;6.004;2023-04-09T12:24:20;2.50;;;2.30;;
14247;SDS011;7208;49.826;6.004;2023-04-09T12:26:49;2.37;;;2.17;;
14247;SDS011;7208;49.826;6.004;2023-04-09T12:29:16;2.10;;;2.00;;
14247;SDS011;7208;49.826;6.004;2023-04-09T12:31:44;2.27;;;2.10;;
14247;SDS011;7208;49.826;6.004;2023-04-09T12:34:10;2.20;;;1.93;;
14247;SDS011;7208;49.826;6.004;2023-04-09T12:36:39;2.20;;;2.10;;
14247;SDS011;7208;49.826;6.004;2023-04-09T12:39:05;1.80;;;1.70;;
14247;SDS011;7208;49.826;6.004;2023-04-09T12:41:32;1.93;;;1.83;;
14247;SDS011;7208;49.826;6.004;2023-04-09T12:43:58;1.70;;;1.60;;
14247;SDS011;7208;49.826;6.004;2023-04-09T12:46:24;2.40;;;1.97;;
14247;SDS011;7208;49.826;6.004;2023-04-09T12:48:51;1.97;;;1.87;;
14247;SDS011;7208;49.826;6.004;2023-04-09T12:51:16;1.80;;;1.70;;
14247;SDS011;7208;49.826;6.004;2023-04-09T12:53:42;2.07;;;1.97;;
14247;SDS011;7208;49.826;6.004;2023-04-09T12:56:07;3.03;;;2.83;;
14247;SDS011;7208;49.826;6.004;2023-04-09T12:58:33;2.97;;;2.77;;
14247;SDS011;7208;49.826;6.004;2023-04-09T13:00:59;1.40;;;1.40;;
14247;SDS011;7208;49.826;6.004;2023-04-09T13:03:25;1.10;;;1.10;;
14247;SDS011;7208;49.826;6.004;2023-04-09T13:05:51;1.03;;;1.03;;
14247;SDS011;7208;49.826;6.004;2023-04-09T13:08:17;1.97;;;1.70;;
14247;SDS011;7208;49.826;6.004;2023-04-09T13:10:43;1.70;;;1.60;;
14247;SDS011;7208;49.826;6.004;2023-04-09T13:13:08;2.10;;;2.00;;
14247;SDS011;7208;49.826;6.004;2023-04-09T13:15:38;1.90;;;1.70;;
14247;SDS011;7208;49.826;6.004;2023-04-09T13:18:07;1.80;;;1.70;;
14247;SDS011;7208;49.826;6.004;2023-04-09T13:20:33;1.60;;;1.50;;
14247;SDS011;7208;49.826;6.004;2023-04-09T13:22:59;1.20;;;1.20;;
14247;SDS011;7208;49.826;6.004;2023-04-09T13:25:24;2.00;;;1.90;;
14247;SDS011;7208;49.826;6.004;2023-04-09T13:27:50;1.67;;;1.57;;
14247;SDS011;7208;49.826;6.004;2023-04-09T13:30:16;1.73;;;1.63;;
14247;SDS011;7208;49.826;6.004;2023-04-09T13:32:41;1.37;;;1.30;;
14247;SDS011;7208;49.826;6.004;2023-04-09T13:35:07;2.20;;;1.80;;
14247;SDS011;7208;49.826;6.004;2023-04-09T13:37:34;2.00;;;1.90;;
14247;SDS011;7208;49.826;6.004;2023-04-09T13:40:00;1.57;;;1.47;;
14247;SDS011;7208;49.826;6.004;2023-04-09T13:42:26;1.70;;;1.60;;
14247;SDS011;7208;49.826;6.004;2023-04-09T13:44:51;1.63;;;1.53;;
14247;SDS011;7208;49.826;6.004;2023-04-09T13:47:17;1.30;;;1.30;;
14247;SDS011;7208;49.826;6.004;2023-04-09T13:49:43;1.60;;;1.50;;
14247;SDS011;7208;49.826;6.004;2023-04-09T13:52:09;2.77;;;2.57;;
14247;SDS011;7208;49.826;6.004;2023-04-09T13:54:35;2.37;;;2.17;;
14247;SDS011;7208;49.826;6.004;2023-04-09T13:57:01;1.60;;;1.50;;
14247;SDS011;7208;49.826;6.004;2023-04-09T13:59:27;1.80;;;1.70;;
14247;SDS011;7208;49.826;6.004;2023-04-09T14:01:53;1.60;;;1.50;;
14247;SDS011;7208;49.826;6.004;2023-04-09T14:04:19;1.40;;;1.40;;
14247;SDS011;7208;49.826;6.004;2023-04-09T14:06:45;1.70;;;1.60;;
14247;SDS011;7208;49.826;6.004;2023-04-09T14:09:11;1.67;;;1.57;;
14247;SDS011;7208;49.826;6.004;2023-04-09T14:11:37;1.80;;;1.70;;
14247;SDS011;7208;49.826;6.004;2023-04-09T14:14:03;1.80;;;1.70;;
14247;SDS011;7208;49.826;6.004;2023-04-09T14:16:29;1.43;;;1.33;;
14247;SDS011;7208;49.826;6.004;2023-04-09T14:18:55;1.40;;;1.40;;
14247;SDS011;7208;49.826;6.004;2023-04-09T14:21:21;1.60;;;1.50;;
14247;SDS011;7208;49.826;6.004;2023-04-09T14:23:46;1.57;;;1.47;;
14247;SDS011;7208;49.826;6.004;2023-04-09T14:26:12;1.50;;;1.40;;
14247;SDS011;7208;49.826;6.004;2023-04-09T14:28:38;1.57;;;1.47;;
14247;SDS011;7208;49.826;6.004;2023-04-09T14:31:04;2.20;;;2.10;;
14247;SDS011;7208;49.826;6.004;2023-04-09T14:33:30;3.93;;;3.57;;
14247;SDS011;7208;49.826;6.004;2023-04-09T14:35:55;4.30;;;3.90;;
14247;SDS011;7208;49.826;6.004;2023-04-09T14:38:22;3.60;;;3.30;;
14247;SDS011;7208;49.826;6.004;2023-04-09T14:40:48;3.33;;;3.03;;
14247;SDS011;7208;49.826;6.004;2023-04-09T14:43:14;3.00;;;2.80;;
14247;SDS011;7208;49.826;6.004;2023-04-09T14:45:40;3.07;;;2.87;;
14247;SDS011;7208;49.826;6.004;2023-04-09T14:48:06;3.67;;;3.37;;
14247;SDS011;7208;49.826;6.004;2023-04-09T14:50:32;11.87;;;11.00;;
14247;SDS011;7208;49.826;6.004;2023-04-09T14:53:00;3.30;;;2.97;;
14247;SDS011;7208;49.826;6.004;2023-04-09T14:55:26;3.40;;;3.10;;
14247;SDS011;7208;49.826;6.004;2023-04-09T14:57:51;3.50;;;3.20;;
14247;SDS011;7208;49.826;6.004;2023-04-09T15:00:17;3.40;;;3.20;;
14247;SDS011;7208;49.826;6.004;2023-04-09T15:02:43;2.97;;;2.67;;
14247;SDS011;7208;49.826;6.004;2023-04-09T15:05:09;1.93;;;1.83;;
14247;SDS011;7208;49.826;6.004;2023-04-09T15:07:34;1.70;;;1.60;;